Latest Coastal Weather Observations for Croker Island Airport

IDD60701

Issued at 7:01 am CST Tuesday 9 February 2016 (issued every 10 minutes, with the page automatically refreshed every 10 minutes)

About coastal observations | Map of coastal stations | Coastal observations for NT | Marine services | Other Formats
Station Details ID: 014308 Name: CROKER ISLAND AIRPORT Lat: -11.16 Lon: 132.48 Height: 9.2 m
Data from the previous 72 hours. | See also: Recent months for locations in Northern Territory
Date/Time
CST
Temp

°C
Wind Pressure Rain
since 9am
mm
Weather Cloud Vis
km
Sea
Height
m
Swell
Dir
 
Speed
knots
Gust
knots
hPa Trend Height
m
Period
s
Dir
09/07:00am 28.6 WNW 5 8 1008.3 - 0.0 - - - - - - -
09/06:30am 28.6 NW 5 8 1007.9 - 0.0 - - - - - - -
09/06:00am 28.6 WNW 6 10 1007.5 - 0.0 - - - - - - -
09/05:30am 28.7 WNW 7 9 1007.2 - 0.0 - - - - - - -
09/05:00am 28.6 WNW 6 9 1006.9 - 0.0 - - - - - - -
09/04:30am 28.6 NW 6 9 1006.9 - 0.0 - - - - - - -
09/04:00am 28.6 NW 5 8 1006.9 - 0.0 - - - - - - -
09/03:30am 28.9 WNW 6 9 1006.9 - 0.0 - - - - - - -
09/03:00am 28.7 NW 5 8 1006.9 - 0.0 - - - - - - -
09/02:30am 28.7 NW 5 8 1007.1 - 0.0 - - - - - - -
09/02:00am 28.6 NW 5 7 1007.5 - 0.0 - - - - - - -
09/01:30am 28.8 NW 5 8 1007.8 - 0.0 - - - - - - -
09/01:00am 28.7 NW 5 8 1008.1 - 0.0 - - - - - - -
09/12:30am 28.8 NW 5 8 1008.4 - 0.0 - - - - - - -
09/12:00am 28.9 NW 5 7 1008.7 - 0.0 - - - - - - -
 
Date/Time
CST
Temp

°C
Wind Pressure Rain
since 9am
mm
Weather Cloud Vis
km
Sea
Height
m
Swell
Dir
 
Speed
knots
Gust
knots
hPa Trend Height
m
Period
s
Dir
08/11:30pm 29.0 NW 5 7 1008.9 - 0.0 - - - - - - -
08/11:00pm 29.1 WNW 5 8 1008.9 - 0.0 - - - - - - -
08/10:30pm 29.2 WNW 6 9 1008.7 - 0.0 - - - - - - -
08/10:00pm 29.2 WNW 6 9 1008.5 - 0.0 - - - - - - -
08/09:30pm 29.2 WNW 5 8 1008.4 - 0.0 - - - - - - -
08/09:00pm 29.0 NW 4 7 1008.1 - 0.0 - - - - - - -
08/08:30pm 29.0 NW 5 9 1007.8 - 0.0 - - - - - - -
08/08:00pm 28.8 NNW 4 6 1007.4 - 0.0 - - - - - - -
08/07:30pm 28.9 NW 4 6 1007.2 - 0.0 - - - - - - -
08/07:00pm 29.5 NW 4 6 1007.1 - 0.0 - - - - - - -
08/06:30pm 30.2 NW 4 6 1007.0 - 0.0 - - - - - - -
08/06:00pm 30.4 NW 5 7 1006.7 - 0.0 - - - - - - -
08/05:30pm 31.3 NW 5 7 1006.4 - 0.0 - - - - - - -
08/05:00pm 31.5 NW 6 9 1006.3 - 0.0 - - - - - - -
08/04:30pm 31.7 NW 6 9 1006.1 - 0.0 - - - - - - -
08/04:00pm 31.8 NW 7 11 1006.2 - 0.0 - - - - - - -
08/03:30pm 32.0 WNW 6 8 1006.3 - 0.0 - - - - - - -
08/03:00pm 31.8 NW 6 9 1006.7 - 0.0 - - - - - - -
08/02:30pm 31.6 NW 6 9 1007.2 - 0.0 - - - - - - -
08/02:00pm 31.7 NW 6 10 1007.6 - 0.0 - - - - - - -
08/01:30pm 31.2 NNW 7 11 1007.5 - 0.0 - - - - - - -
08/01:00pm 31.2 NW 6 9 1008.1 - 0.0 - - - - - - -
08/12:30pm 31.0 NNW 5 9 1008.8 - 0.0 - - - - - - -
08/12:00pm 31.7 NW 6 9 1009.1 - 0.0 - - - - - - -
08/11:30am 31.8 NW 5 8 1009.4 - 0.0 - - - - - - -
08/11:00am 31.1 WNW 3 6 1009.4 - 0.0 - - - - - - -
08/10:30am 30.5 WNW 4 5 1009.3 - 0.0 - - - - - - -
08/10:00am 30.8 WSW 2 4 1009.5 - 0.0 - - - - - - -
08/09:30am 29.9 WNW 3 5 1009.5 - 0.0 - - - - - - -
08/09:00am 30.2 W 3 5 1009.4 - 0.0 - - - - - - -
08/08:30am 29.8 W 3 4 1009.4 - 0.0 - - - - - - -
08/08:00am 29.3 W 3 4 1009.2 - 0.0 - - - - - - -
08/07:30am 28.7 W 2 3 1008.8 - 0.0 - - - - - - -
08/07:00am 28.2 W 4 5 1008.6 - 0.0 - - - - - - -
08/06:30am 28.3 W 5 7 1008.6 - 0.0 - - - - - - -
08/06:00am 28.1 WNW 3 5 1008.2 - 0.0 - - - - - - -
08/05:30am 28.2 W 5 6 1008.1 - 0.0 - - - - - - -
08/05:00am 28.2 WSW 6 7 1008.0 - 0.0 - - - - - - -
08/04:30am 28.4 W 5 7 1008.0 - 0.0 - - - - - - -
08/04:00am 28.4 WNW 5 7 1007.9 - 0.0 - - - - - - -
08/03:30am 28.7 W 6 8 1008.1 - 0.0 - - - - - - -
08/03:00am 28.6 WNW 5 8 1008.0 - 0.0 - - - - - - -
08/02:30am 28.4 NW 4 6 1008.1 - 0.0 - - - - - - -
08/02:00am 28.4 NW 4 6 1008.2 - 0.0 - - - - - - -
08/01:30am 28.7 WNW 5 8 1008.3 - 0.0 - - - - - - -
08/01:00am 28.4 WNW 3 5 1008.7 - 0.0 - - - - - - -
08/12:30am 28.8 W 5 7 1008.8 - 0.0 - - - - - - -
08/12:00am 28.9 W 5 7 1009.3 - 0.0 - - - - - - -
 
Date/Time
CST
Temp

°C
Wind Pressure Rain
since 9am
mm
Weather Cloud Vis
km
Sea
Height
m
Swell
Dir
 
Speed
knots
Gust
knots
hPa Trend Height
m
Period
s
Dir
07/11:30pm 28.9 WSW 5 7 1009.5 - 0.0 - - - - - - -
07/11:00pm 29.2 W 4 8 1009.6 - 0.0 - - - - - - -
07/10:30pm 29.1 WNW 6 8 1009.4 - 0.0 - - - - - - -
07/10:00pm 29.2 WNW 6 9 1009.0 - 0.0 - - - - - - -
07/09:30pm 29.1 WNW 6 9 1008.7 - 0.0 - - - - - - -
07/09:00pm 29.3 WNW 7 9 1008.4 - 0.0 - - - - - - -
07/08:30pm 29.4 WNW 8 11 1008.3 - 0.0 - - - - - - -
07/08:00pm 29.0 W 5 8 1007.9 - 0.0 - - - - - - -
07/07:30pm 29.0 WSW 7 10 1007.7 - 0.0 - - - - - - -
07/07:00pm 29.4 WNW 6 9 1007.4 - 0.0 - - - - - - -
07/06:30pm 29.3 W 5 8 1007.0 - 0.0 - - - - - - -
07/06:00pm 29.4 WSW 5 9 1006.6 - 0.0 - - - - - - -
07/05:30pm 29.3 W 5 8 1006.3 - 0.0 - - - - - - -
07/05:00pm 29.8 WNW 6 9 1006.0 - 0.0 - - - - - - -
07/04:30pm 31.3 W 4 7 1005.9 - 0.0 - - - - - - -
07/04:00pm 31.5 WSW 3 4 1005.8 - 0.0 - - - - - - -
07/03:30pm 31.1 W 2 3 1005.8 - 0.0 - - - - - - -
07/03:00pm 30.9 S 2 4 1006.1 - 0.0 - - - - - - -
07/02:30pm 30.3 SSW 5 8 1006.8 - 0.0 - - - - - - -
07/02:00pm 28.8 SW 11 15 1007.1 - 0.0 - - - - - - -
07/01:30pm 28.7 SW 16 20 1007.6 - 0.0 - - - - - - -
07/01:00pm 31.6 WNW 9 12 1007.5 - 0.0 - - - - - - -
07/12:30pm 31.8 NW 6 9 1007.8 - 0.0 - - - - - - -
07/12:00pm 30.9 NW 7 11 1008.1 - 0.0 - - - - - - -
07/11:30am 31.1 NW 6 11 1008.5 - 0.0 - - - - - - -
07/11:00am 30.9 NW 5 8 1008.6 - 0.0 - - - - - - -
07/10:30am 31.0 WNW 4 6 1008.8 - 0.0 - - - - - - -
07/10:00am 30.6 WNW 4 5 1008.8 - 0.0 - - - - - - -
07/09:30am 30.4 NNW 3 5 1008.6 - 0.0 - - - - - - -
07/09:00am 29.8 WNW 2 4 1008.4 - 0.0 - - - - - - -
07/08:30am 29.8 W 2 3 1008.2 - 0.0 - - - - - - -
07/08:00am 29.4 WSW 3 5 1008.1 - 0.0 - - - - - - -
07/07:30am 28.8 W 4 6 1007.8 - 0.0 - - - - - - -
07/07:00am 28.2 WNW 4 5 1007.4 - 0.0 - - - - - - -
07/06:30am 28.2 WNW 6 8 1007.3 - 0.0 - - - - - - -
07/06:00am 28.1 WNW 5 7 1007.2 - 0.0 - - - - - - -
07/05:30am 27.9 NW 4 5 1007.0 - 0.0 - - - - - - -
07/05:00am 28.0 WNW 4 6 1006.7 - 0.0 - - - - - - -
07/04:30am 28.1 WNW 4 7 1006.6 - 0.0 - - - - - - -
07/04:00am 28.1 NW 5 8 1006.4 - 0.0 - - - - - - -
07/03:30am 28.0 NW 5 7 1006.4 - 0.0 - - - - - - -
07/03:00am 28.0 NW 5 7 1006.4 - 0.0 - - - - - - -
07/02:30am 27.9 NW 5 7 1006.6 - 0.0 - - - - - - -
07/02:00am 27.8 NW 3 5 1007.0 - 0.0 - - - - - - -
07/01:30am 28.0 NW 4 6 1007.3 - 0.0 - - - - - - -
07/01:00am 28.0 NW 5 7 1007.6 - 0.0 - - - - - - -
07/12:30am 27.9 NW 4 7 1007.6 - 0.0 - - - - - - -
07/12:00am 27.9 NW 4 6 1007.9 - 0.0 - - - - - - -
 
Date/Time
CST
Temp

°C
Wind Pressure Rain
since 9am
mm
Weather Cloud Vis
km
Sea
Height
m
Swell
Dir
 
Speed
knots
Gust
knots
hPa Trend Height
m
Period
s
Dir
06/11:30pm 28.1 WNW 5 7 1008.1 - 0.0 - - - - - - -
06/11:00pm 28.0 NW 4 5 1008.4 - 0.0 - - - - - - -
06/10:30pm 27.8 NW 4 6 1008.2 - 0.0 - - - - - - -
06/10:00pm 27.7 NW 4 5 1008.0 - 0.0 - - - - - - -
06/09:30pm 27.5 NW 4 4 1007.6 - 0.0 - - - - - - -
06/09:00pm 27.5 NW 3 5 1007.4 - 0.0 - - - - - - -
06/08:30pm 27.6 NW 3 3 1007.0 - 0.0 - - - - - - -
06/08:00pm 27.7 NW 3 4 1006.6 - 0.0 - - - - - - -
06/07:30pm 28.1 WNW 2 4 1006.5 - 0.0 - - - - - - -
06/07:00pm 28.5 WNW 2 3 1006.4 - 0.0 - - - - - - -
06/06:30pm 28.9 W 2 3 1006.0 - 0.0 - - - - - - -
06/06:00pm 29.3 W 2 3 1005.8 - 0.0 - - - - - - -
06/05:30pm 29.5 SW 2 2 1005.4 - 0.0 - - - - - - -
06/05:00pm 29.6 SSW 3 5 1005.2 - 0.0 - - - - - - -
06/04:30pm 29.6 SSW 4 5 1005.0 - 0.0 - - - - - - -
06/04:00pm 29.7 SSW 5 7 1005.2 - 0.0 - - - - - - -
06/03:30pm 30.1 SW 5 8 1005.4 - 0.0 - - - - - - -
06/03:00pm 30.0 SW 6 9 1005.7 - 0.0 - - - - - - -
06/02:30pm 30.3 SW 8 11 1006.0 - 0.0 - - - - - - -
06/02:00pm 30.6 SW 10 13 1006.3 - 0.0 - - - - - - -
06/01:30pm 29.1 SW 10 13 1006.6 - 0.0 - - - - - - -
06/01:00pm 29.0 SW 9 12 1007.1 - 0.0 - - - - - - -
06/12:30pm 29.2 SW 13 17 1007.5 - 0.0 - - - - - - -
06/12:00pm 29.0 WSW 12 16 1007.9 - 0.0 - - - - - - -
06/11:30am 27.6 WSW 12 15 1008.2 - 0.0 - - - - - - -
06/11:00am 26.9 SW 15 18 1008.3 - 0.0 - - - - - - -
06/10:30am 26.3 SW 12 16 1008.5 - 0.0 - - - - - - -
06/10:00am 25.4 SW 12 17 1009.0 - 0.0 - - - - - - -
06/09:30am 25.6 SW 10 13 1009.2 - 0.0 - - - - - - -
06/09:00am 25.2 SSW 8 11 1009.1 - 0.0 - - - - - - -
06/08:30am 24.9 SSW 11 14 1008.8 - 0.0 - - - - - - -
06/08:00am 25.3 SSW 11 15 1008.5 - 0.0 - - - - - - -
06/07:30am 25.6 SSW 12 16 1008.1 - 0.0 - - - - - - -

Other Formats:

Comma delimited format used in spreadsheet applications
http://www.bom.gov.au/fwo/IDD60701/IDD60701.94108.axf

JavaScript Object Notation format (JSON) in row-major order
http://www.bom.gov.au/fwo/IDD60701/IDD60701.94108.json